ダッカ の空港の天気 - METARとTAF

シャージャラル国際空港(ダッカ) ( VGHS / DAC ) - バングラデシュ ダッカ
飛行場実況気象(Metar)
観測時間03/29 03:00 +06 (03/28 21:00 UTC)
風向・風速南東 3m/s
視程3500m
天気現象煙霧
全天の4割程度の雲 雲底高度 370m
全天の8割程度の雲 雲底高度 3050m
気温24℃
湿度83%
気圧1008hPa
METARVGHS 282100Z 14006KT 3500 HZ SCT012 BKN100 24/21 Q1008 NOSIG
過去の天気等 Google飛行場航空写真 Wunderground天気予報

過去48時間のMETAR

飛行場予報(TAF)
発表時間: 3/28 23:00 +06 (3/28 17:00 UTC)
予報対象時間: 29日0時 +06 ~ 30日6時 +06
風向・風速東南東 3m/s
視程3,500m
天気現象煙霧
全天の4割程度の雲 雲底高度 460m
全天の8割程度の雲 雲底高度 3,050m
29日0時 +06 ~ 29日6時 +06 に一時的に
風向・風速西 13m/s 瞬間風速 18m/s
視程1,500m
29日6時 +06 ~ 29日8時 +06 に徐々に
風向・風速不定 2m/s
視程3,000m
天気現象煙霧
全天の4割程度の雲 雲底高度 460m
全天の8割程度の雲 雲底高度 3,050m
29日10時 +06 ~ 29日12時 +06 に徐々に
風向・風速南南西 5m/s
視程3,500m
天気現象煙霧
全天の4割程度の雲 雲底高度 460m
全天の8割程度の雲 雲底高度 3,050m
29日12時 +06 ~ 29日18時 +06 に一時的に
風向・風速西 13m/s 瞬間風速 18m/s
視程2,000m
30日0時 +06 ~ 30日2時 +06 に徐々に
風向・風速不定 2m/s
視程3,000m
天気現象煙霧
全天の4割程度の雲 雲底高度 460m
全天の4割程度の雲 雲底高度 3,050m
TAF VGHS 281700Z 2818/2924 12006KT 3500 HZ SCT015 BKN100
TEMPO 2818/2824 27025G35KT 1500 TSRA/RA BKN007 FEW025CB OVC090
BECMG 2900/2902 VRB03KT 3000 HZ SCT015 BKN100
BECMG 2904/2906 20010KT 3500 HZ SCT015 BKN100
TEMPO 2906/2912 26025G35KT 2000 RA/TSRA BKN008 FEW025CB OVC090
BECMG 2918/2920 VRB03KT 3000 HZ SCT015 SCT100